createdAt,value
2019-04-24T00:00:02.677Z,9.94
2019-04-24T00:00:07.675Z,8.10
2019-04-24T00:00:12.677Z,7.49
2019-04-24T00:00:17.679Z,7.59
2019-04-24T00:00:22.684Z,7.33
2019-04-24T00:00:28.696Z,7.24
2019-04-24T00:00:32.921Z,7.93
2019-04-24T00:00:37.721Z,8.16
2019-04-24T00:00:42.724Z,7.51
2019-04-24T00:00:47.730Z,6.01
2019-04-24T00:00:52.722Z,4.39
2019-04-24T00:00:57.724Z,7.28
2019-04-24T00:01:02.727Z,7.23
2019-04-24T00:01:07.727Z,7.21
2019-04-24T00:01:12.729Z,7.20
2019-04-24T00:01:17.730Z,7.20
2019-04-24T00:01:22.728Z,7.20
2019-04-24T00:01:27.863Z,7.20
2019-04-24T00:01:32.806Z,7.20
2019-04-24T00:01:38.558Z,8.50
2019-04-24T00:01:42.732Z,10.05
2019-04-24T00:01:47.750Z,8.80
2019-04-24T00:01:52.735Z,7.72
2019-04-24T00:01:57.736Z,7.37
2019-04-24T00:02:02.738Z,7.26
2019-04-24T00:02:07.740Z,6.92
2019-04-24T00:02:12.739Z,8.41
2019-04-24T00:02:17.740Z,7.59
2019-04-24T00:02:22.749Z,7.33
2019-04-24T00:02:27.743Z,7.24
2019-04-24T00:02:32.744Z,4.79
2019-04-24T00:02:37.749Z,5.75
2019-04-24T00:02:42.746Z,8.85
2019-04-24T00:02:47.747Z,10.16
2019-04-24T00:02:52.746Z,10.59
2019-04-24T00:02:57.747Z,9.03
2019-04-24T00:03:02.751Z,8.52
2019-04-24T00:03:07.753Z,12.18
2019-04-24T00:03:12.750Z,12.38
2019-04-24T00:03:17.753Z,11.98
2019-04-24T00:03:22.753Z,11.56
2019-04-24T00:03:27.754Z,11.05
2019-04-24T00:03:32.756Z,10.88
2019-04-24T00:03:37.757Z,9.16
2019-04-24T00:03:42.795Z,7.84
2019-04-24T00:03:47.758Z,7.41
2019-04-24T00:03:52.760Z,7.27
2019-04-24T00:03:57.760Z,7.22
2019-04-24T00:04:02.764Z,7.21
2019-04-24T00:04:07.764Z,7.20
2019-04-24T00:04:12.765Z,6.16
2019-04-24T00:04:17.764Z,8.62
2019-04-24T00:04:22.767Z,8.79
2019-04-24T00:04:27.765Z,7.72
2019-04-24T00:04:32.767Z,6.13
2019-04-24T00:04:37.768Z,6.85
2019-04-24T00:04:42.768Z,6.72
2019-04-24T00:04:47.772Z,8.34
2019-04-24T00:04:52.771Z,9.99
2019-04-24T00:04:57.773Z,10.54
2019-04-24T00:05:02.772Z,10.71
2019-04-24T00:05:07.773Z,10.05
2019-04-24T00:05:12.899Z,8.13
2019-04-24T00:05:17.777Z,6.21
2019-04-24T00:05:22.777Z,4.46
2019-04-24T00:05:27.778Z,4.34
2019-04-24T00:05:32.780Z,4.14
2019-04-24T00:05:37.813Z,7.95
2019-04-24T00:05:42.782Z,8.57
2019-04-24T00:05:47.782Z,7.65
2019-04-24T00:05:52.863Z,7.35
2019-04-24T00:05:57.782Z,6.88
2019-04-24T00:06:02.783Z,6.63
2019-04-24T00:06:07.784Z,7.01
2019-04-24T00:06:12.789Z,7.14
2019-04-24T00:06:17.788Z,5.85
2019-04-24T00:06:22.788Z,6.76
2019-04-24T00:06:27.788Z,8.35
2019-04-24T00:06:32.790Z,7.87
2019-04-24T00:06:37.793Z,7.42
2019-04-24T00:06:42.792Z,7.27
2019-04-24T00:06:47.793Z,7.22
2019-04-24T00:06:52.793Z,8.50
2019-04-24T00:06:57.796Z,10.05
2019-04-24T00:07:03.098Z,10.55
2019-04-24T00:07:07.796Z,10.72
2019-04-24T00:07:12.798Z,10.77
2019-04-24T00:07:17.799Z,9.96
2019-04-24T00:07:22.800Z,8.11
2019-04-24T00:07:27.802Z,7.50
2019-04-24T00:07:32.802Z,7.87
2019-04-24T00:07:37.804Z,7.72
2019-04-24T00:07:42.803Z,7.37
2019-04-24T00:07:47.812Z,7.26
2019-04-24T00:07:52.806Z,6.27
2019-04-24T00:07:57.807Z,6.60
2019-04-24T00:08:02.810Z,9.13
2019-04-24T00:08:07.809Z,9.53
2019-04-24T00:08:12.809Z,7.96
2019-04-24T00:08:17.812Z,6.62
2019-04-24T00:08:22.990Z,9.14
2019-04-24T00:08:27.814Z,8.92
2019-04-24T00:08:32.814Z,8.59
2019-04-24T00:08:37.814Z,8.03
2019-04-24T00:08:42.816Z,7.47
2019-04-24T00:08:47.818Z,5.99
2019-04-24T00:08:52.817Z,4.38
2019-04-24T00:08:57.819Z,4.87
2019-04-24T00:09:02.821Z,6.44
2019-04-24T00:09:07.821Z,6.95
2019-04-24T00:09:12.821Z,7.12
2019-04-24T00:09:17.824Z,7.47
2019-04-24T00:09:22.822Z,7.66
2019-04-24T00:09:27.823Z,7.35
2019-04-24T00:09:32.830Z,7.25
2019-04-24T00:09:37.827Z,7.22
2019-04-24T00:09:42.827Z,7.57
2019-04-24T00:09:47.828Z,7.32
2019-04-24T00:09:52.829Z,7.24
2019-04-24T00:09:58.286Z,6.03
2019-04-24T00:10:02.831Z,8.11
2019-04-24T00:10:08.000Z,9.34
2019-04-24T00:10:12.832Z,10.03
2019-04-24T00:10:17.834Z,9.83
2019-04-24T00:10:22.835Z,9.19
2019-04-24T00:10:27.838Z,8.43
2019-04-24T00:10:32.836Z,10.02
2019-04-24T00:10:37.839Z,8.49
2019-04-24T00:10:42.839Z,7.62
2019-04-24T00:10:47.841Z,7.34
2019-04-24T00:10:52.844Z,7.25
2019-04-24T00:10:57.844Z,6.85
2019-04-24T00:11:02.843Z,6.05
2019-04-24T00:11:07.849Z,7.65
2019-04-24T00:11:12.845Z,7.92
2019-04-24T00:11:17.846Z,8.27
2019-04-24T00:11:23.050Z,7.84
2019-04-24T00:11:27.848Z,7.41
2019-04-24T00:11:32.849Z,7.99
2019-04-24T00:11:37.854Z,9.58
2019-04-24T00:11:42.850Z,9.11
2019-04-24T00:11:47.853Z,9.58
2019-04-24T00:11:52.852Z,10.40
2019-04-24T00:11:57.852Z,9.67
2019-04-24T00:12:02.854Z,8.01
2019-04-24T00:12:07.855Z,8.55
2019-04-24T00:12:12.857Z,8.47
2019-04-24T00:12:17.857Z,8.91
2019-04-24T00:12:22.860Z,10.18
2019-04-24T00:12:27.859Z,8.84
2019-04-24T00:12:32.859Z,8.11
2019-04-24T00:12:37.861Z,7.50
2019-04-24T00:12:42.862Z,7.30
2019-04-24T00:12:47.862Z,7.23
2019-04-24T00:12:53.457Z,7.21
2019-04-24T00:12:57.866Z,8.24
2019-04-24T00:13:02.867Z,7.54
2019-04-24T00:13:07.867Z,7.31
2019-04-24T00:13:12.943Z,7.24
2019-04-24T00:13:17.869Z,5.55
2019-04-24T00:13:22.870Z,4.24
2019-04-24T00:13:27.873Z,3.81
2019-04-24T00:13:32.871Z,6.09
2019-04-24T00:13:37.875Z,7.76
2019-04-24T00:13:42.874Z,11.93
2019-04-24T00:13:47.877Z,11.63
2019-04-24T00:13:52.876Z,11.07
2019-04-24T00:13:57.882Z,10.89
2019-04-24T00:14:02.879Z,9.70
2019-04-24T00:14:07.880Z,10.44
2019-04-24T00:14:12.880Z,10.68
2019-04-24T00:14:17.882Z,9.21
2019-04-24T00:14:22.884Z,8.15
2019-04-24T00:14:27.883Z,7.51
2019-04-24T00:14:32.885Z,7.30
2019-04-24T00:14:37.885Z,7.23
2019-04-24T00:14:42.887Z,8.51
2019-04-24T00:14:47.888Z,10.05
2019-04-24T00:14:52.889Z,10.55
2019-04-24T00:14:57.889Z,8.59
2019-04-24T00:15:02.890Z,9.41
2019-04-24T00:15:07.892Z,10.35
2019-04-24T00:15:12.894Z,10.65
2019-04-24T00:15:17.893Z,8.99
2019-04-24T00:15:22.895Z,10.21
2019-04-24T00:15:27.893Z,10.61
2019-04-24T00:15:32.896Z,9.44
2019-04-24T00:15:37.896Z,8.30
2019-04-24T00:15:42.897Z,7.56
2019-04-24T00:15:47.899Z,7.32
2019-04-24T00:15:52.898Z,7.24
2019-04-24T00:15:57.902Z,7.21
2019-04-24T00:16:02.901Z,5.45
2019-04-24T00:16:07.903Z,5.80
2019-04-24T00:16:12.903Z,6.74
2019-04-24T00:16:17.904Z,5.38
2019-04-24T00:16:22.906Z,5.48
2019-04-24T00:16:27.907Z,6.64
2019-04-24T00:16:32.906Z,7.02
2019-04-24T00:16:37.907Z,7.14
2019-04-24T00:16:42.909Z,7.90
2019-04-24T00:16:47.912Z,9.85
2019-04-24T00:16:52.911Z,8.79
2019-04-24T00:16:57.912Z,7.72
2019-04-24T00:17:02.913Z,7.37
2019-04-24T00:17:07.915Z,7.26
2019-04-24T00:17:12.919Z,4.80
2019-04-24T00:17:17.917Z,4.57
2019-04-24T00:17:22.917Z,7.06
2019-04-24T00:17:27.918Z,11.33
2019-04-24T00:17:32.917Z,11.27
2019-04-24T00:17:37.921Z,8.83
2019-04-24T00:17:42.920Z,7.73
2019-04-24T00:17:47.922Z,7.37
2019-04-24T00:17:52.923Z,8.96
2019-04-24T00:17:57.925Z,9.07
2019-04-24T00:18:02.927Z,9.66
2019-04-24T00:18:07.926Z,12.55
2019-04-24T00:18:12.934Z,13.79
2019-04-24T00:18:28.566Z,7.38
2019-04-24T00:18:33.299Z,6.80
2019-04-24T00:18:38.299Z,7.79
2019-04-24T00:18:43.303Z,7.69
2019-04-24T00:18:48.300Z,7.36
2019-04-24T00:18:53.304Z,7.25
2019-04-24T00:18:58.302Z,7.22
2019-04-24T00:19:03.303Z,7.21
2019-04-24T00:19:08.305Z,7.20
2019-04-24T00:19:13.305Z,6.48
2019-04-24T00:19:18.307Z,7.68
2019-04-24T00:19:23.307Z,7.36
2019-04-24T00:19:28.309Z,7.25
2019-04-24T00:19:33.595Z,5.17
2019-04-24T00:19:38.310Z,4.83
2019-04-24T00:19:43.313Z,6.42
2019-04-24T00:19:48.313Z,7.70
2019-04-24T00:19:53.313Z,7.36
2019-04-24T00:19:58.314Z,6.96
2019-04-24T00:20:03.315Z,7.12
2019-04-24T00:20:08.317Z,7.75
2019-04-24T00:20:13.317Z,7.75
2019-04-24T00:20:18.320Z,8.68
2019-04-24T00:20:23.318Z,10.10
2019-04-24T00:20:28.322Z,11.03
2019-04-24T00:20:33.397Z,8.75
2019-04-24T00:20:38.322Z,7.71
2019-04-24T00:20:43.324Z,7.37
2019-04-24T00:20:48.324Z,4.83
2019-04-24T00:20:53.326Z,5.30
2019-04-24T00:20:58.327Z,6.58
2019-04-24T00:21:03.328Z,8.29
2019-04-24T00:21:08.329Z,7.56
2019-04-24T00:21:13.330Z,4.90
2019-04-24T00:21:18.331Z,4.78
2019-04-24T00:21:23.331Z,3.99
2019-04-24T00:21:28.334Z,3.36
2019-04-24T00:21:33.334Z,3.95
2019-04-24T00:21:38.335Z,6.71
2019-04-24T00:21:43.334Z,9.09
2019-04-24T00:21:48.337Z,11.54
2019-04-24T00:21:53.336Z,12.37
2019-04-24T00:21:58.337Z,11.32
2019-04-24T00:22:03.338Z,10.97
2019-04-24T00:22:08.340Z,10.86
2019-04-24T00:22:13.346Z,10.36
2019-04-24T00:22:18.342Z,11.69
2019-04-24T00:22:23.868Z,11.09
2019-04-24T00:22:28.343Z,9.71
2019-04-24T00:22:33.344Z,10.44
2019-04-24T00:22:38.349Z,10.68
2019-04-24T00:22:43.348Z,13.18
2019-04-24T00:22:48.348Z,10.28
2019-04-24T00:22:53.350Z,6.91
2019-04-24T00:22:58.350Z,4.69
2019-04-24T00:23:03.351Z,3.96
2019-04-24T00:23:08.351Z,3.72
2019-04-24T00:23:13.354Z,5.40
2019-04-24T00:23:18.354Z,6.98
2019-04-24T00:23:23.355Z,9.25
2019-04-24T00:23:28.355Z,12.42
2019-04-24T00:23:33.357Z,10.75
2019-04-24T00:23:38.359Z,8.94
2019-04-24T00:23:43.359Z,7.77
2019-04-24T00:23:48.359Z,9.05
2019-04-24T00:23:53.362Z,10.23
2019-04-24T00:23:58.365Z,11.07
2019-04-24T00:24:03.364Z,9.59
2019-04-24T00:24:08.364Z,7.98
2019-04-24T00:24:13.364Z,8.18
2019-04-24T00:24:18.366Z,8.28
2019-04-24T00:24:23.366Z,8.94
2019-04-24T00:24:28.366Z,9.43
2019-04-24T00:24:33.534Z,7.93
2019-04-24T00:24:38.369Z,5.89
2019-04-24T00:24:43.369Z,6.77
2019-04-24T00:24:48.371Z,7.06
2019-04-24T00:24:53.371Z,7.15
2019-04-24T00:24:58.376Z,7.18
2019-04-24T00:25:03.374Z,7.20
2019-04-24T00:25:08.376Z,7.92
2019-04-24T00:25:13.378Z,7.73
2019-04-24T00:25:18.379Z,5.71
2019-04-24T00:25:23.765Z,5.01
2019-04-24T00:25:28.381Z,6.48
2019-04-24T00:25:33.379Z,8.26
2019-04-24T00:25:38.380Z,7.55
2019-04-24T00:25:43.383Z,7.31
2019-04-24T00:25:48.384Z,7.24
2019-04-24T00:25:53.384Z,10.27
2019-04-24T00:25:58.385Z,10.62
2019-04-24T00:26:03.387Z,10.74
2019-04-24T00:26:08.387Z,9.49
2019-04-24T00:26:13.388Z,7.95
2019-04-24T00:26:18.389Z,9.50
2019-04-24T00:26:23.390Z,7.95
2019-04-24T00:26:28.391Z,9.46
2019-04-24T00:26:33.392Z,10.66
2019-04-24T00:26:38.395Z,10.75
2019-04-24T00:26:43.394Z,9.12
2019-04-24T00:26:48.393Z,7.83
2019-04-24T00:26:53.396Z,8.96
2019-04-24T00:26:58.396Z,9.07
2019-04-24T00:27:03.397Z,10.23
2019-04-24T00:27:08.398Z,10.61
2019-04-24T00:27:13.400Z,10.02
2019-04-24T00:27:18.400Z,8.84
2019-04-24T00:27:23.402Z,8.11
2019-04-24T00:27:28.402Z,9.20
2019-04-24T00:27:33.404Z,7.85
2019-04-24T00:27:38.405Z,6.69
2019-04-24T00:27:44.796Z,6.74
2019-04-24T00:27:48.405Z,10.51
2019-04-24T00:27:53.406Z,9.41
2019-04-24T00:27:58.407Z,7.92
2019-04-24T00:28:03.407Z,9.56
2019-04-24T00:28:08.412Z,8.34
2019-04-24T00:28:14.150Z,6.85
2019-04-24T00:28:18.414Z,5.54
2019-04-24T00:28:23.771Z,6.29
2019-04-24T00:28:28.412Z,9.32
2019-04-24T00:28:33.584Z,10.32
2019-04-24T00:28:38.418Z,10.35
2019-04-24T00:28:43.514Z,8.23
2019-04-24T00:28:48.419Z,7.54
2019-04-24T00:28:53.418Z,8.61
2019-04-24T00:28:58.420Z,8.61
2019-04-24T00:29:03.421Z,8.38
2019-04-24T00:29:08.422Z,7.59
2019-04-24T00:29:13.422Z,8.51
2019-04-24T00:29:18.424Z,9.33
2019-04-24T00:29:23.426Z,7.90
2019-04-24T00:29:28.428Z,7.43
2019-04-24T00:29:33.427Z,8.68
2019-04-24T00:29:38.429Z,7.98
2019-04-24T00:29:43.429Z,7.46
2019-04-24T00:29:48.431Z,5.81
2019-04-24T00:29:53.430Z,4.32
2019-04-24T00:29:58.461Z,7.55
2019-04-24T00:30:03.433Z,10.03
2019-04-24T00:30:08.433Z,10.25
2019-04-24T00:30:13.434Z,9.68
2019-04-24T00:30:18.436Z,8.77
2019-04-24T00:30:23.438Z,8.01
2019-04-24T00:30:28.438Z,7.00
2019-04-24T00:30:33.438Z,6.42
2019-04-24T00:30:38.442Z,6.94
2019-04-24T00:30:43.522Z,6.75
2019-04-24T00:30:48.698Z,7.05
2019-04-24T00:30:53.445Z,7.15
2019-04-24T00:30:58.443Z,7.18
2019-04-24T00:31:03.445Z,6.62
2019-04-24T00:31:08.515Z,7.01
2019-04-24T00:31:13.446Z,7.14
2019-04-24T00:31:18.455Z,5.51
2019-04-24T00:31:23.454Z,5.41
2019-04-24T00:31:28.449Z,4.19
2019-04-24T00:31:33.451Z,4.88
2019-04-24T00:31:38.451Z,5.86
2019-04-24T00:31:43.453Z,4.34
2019-04-24T00:31:48.452Z,3.84
2019-04-24T00:31:53.455Z,3.68
2019-04-24T00:31:58.455Z,6.05
2019-04-24T00:32:03.456Z,9.67
2019-04-24T00:32:08.458Z,12.27
2019-04-24T00:32:13.458Z,11.74
2019-04-24T00:32:18.458Z,11.11
2019-04-24T00:32:23.460Z,10.90
2019-04-24T00:32:28.460Z,8.41
2019-04-24T00:32:33.462Z,5.18
2019-04-24T00:32:38.463Z,6.24
2019-04-24T00:32:43.464Z,6.89
2019-04-24T00:32:48.465Z,7.10
2019-04-24T00:32:53.466Z,5.58
2019-04-24T00:32:58.468Z,4.25
2019-04-24T00:33:03.467Z,3.81
2019-04-24T00:33:08.469Z,3.67
2019-04-24T00:33:13.470Z,3.62
2019-04-24T00:33:18.470Z,3.61
2019-04-24T00:33:23.472Z,3.60
2019-04-24T00:33:28.472Z,3.60
2019-04-24T00:33:33.474Z,3.60
2019-04-24T00:33:38.475Z,4.32
2019-04-24T00:33:43.479Z,6.26
2019-04-24T00:33:48.477Z,5.95
2019-04-24T00:33:53.478Z,6.21
2019-04-24T00:33:58.484Z,4.46
2019-04-24T00:34:03.482Z,3.88
2019-04-24T00:34:08.481Z,3.69
2019-04-24T00:34:13.485Z,3.63
2019-04-24T00:34:18.486Z,3.61
2019-04-24T00:34:23.485Z,5.73
2019-04-24T00:34:28.489Z,10.43
2019-04-24T00:34:33.522Z,11.34
2019-04-24T00:34:38.490Z,10.98
2019-04-24T00:34:43.490Z,10.86
2019-04-24T00:34:48.489Z,8.69
2019-04-24T00:34:53.492Z,7.69
2019-04-24T00:34:58.496Z,4.94
2019-04-24T00:35:03.494Z,4.04
2019-04-24T00:35:08.495Z,3.74
2019-04-24T00:35:13.500Z,3.65
2019-04-24T00:35:18.500Z,3.62
2019-04-24T00:35:23.497Z,3.61
2019-04-24T00:35:28.500Z,4.32
2019-04-24T00:35:33.500Z,4.21
2019-04-24T00:35:38.501Z,5.92
2019-04-24T00:35:43.503Z,6.78
2019-04-24T00:35:48.501Z,4.64
2019-04-24T00:35:53.504Z,5.24
2019-04-24T00:35:58.503Z,6.56
2019-04-24T00:36:03.504Z,7.71
2019-04-24T00:36:08.507Z,11.54
2019-04-24T00:36:13.507Z,10.47
2019-04-24T00:36:18.507Z,8.27
2019-04-24T00:36:23.509Z,7.55
2019-04-24T00:36:28.511Z,8.03
2019-04-24T00:36:33.509Z,10.61
2019-04-24T00:36:38.511Z,14.92
2019-04-24T00:36:43.514Z,15.32
2019-04-24T00:36:48.826Z,14.70
2019-04-24T00:36:53.516Z,13.78
2019-04-24T00:36:58.522Z,9.65
2019-04-24T00:37:03.515Z,8.00
2019-04-24T00:37:08.845Z,10.16
2019-04-24T00:37:13.518Z,12.07
2019-04-24T00:37:18.522Z,11.22
2019-04-24T00:37:23.522Z,10.94
2019-04-24T00:37:28.522Z,10.12
2019-04-24T00:37:33.527Z,10.58
2019-04-24T00:37:38.528Z,8.60
2019-04-24T00:37:43.772Z,7.95
2019-04-24T00:37:48.526Z,8.92
2019-04-24T00:37:53.549Z,7.76
2019-04-24T00:37:58.526Z,7.38
2019-04-24T00:38:03.531Z,7.26
2019-04-24T00:38:08.529Z,9.18
2019-04-24T00:38:13.529Z,8.14
2019-04-24T00:38:18.532Z,9.21
2019-04-24T00:38:23.531Z,10.85
2019-04-24T00:38:28.533Z,14.79
2019-04-24T00:38:33.533Z,14.82
2019-04-24T00:38:38.538Z,13.24
2019-04-24T00:38:43.536Z,11.60
2019-04-24T00:38:48.537Z,11.06
2019-04-24T00:38:53.539Z,9.59
2019-04-24T00:38:58.539Z,9.28
2019-04-24T00:39:03.539Z,10.30
2019-04-24T00:39:08.555Z,10.93
2019-04-24T00:39:13.641Z,11.97
2019-04-24T00:39:18.541Z,11.18
2019-04-24T00:39:23.544Z,11.39
2019-04-24T00:39:28.553Z,10.05
2019-04-24T00:39:33.544Z,8.80
2019-04-24T00:39:38.548Z,7.72
2019-04-24T00:39:43.549Z,7.37
2019-04-24T00:39:48.549Z,8.55
2019-04-24T00:39:53.549Z,7.64
2019-04-24T00:39:58.550Z,6.26
2019-04-24T00:40:03.552Z,4.47
2019-04-24T00:40:08.554Z,3.89
2019-04-24T00:40:13.553Z,3.69
2019-04-24T00:40:18.554Z,5.76
2019-04-24T00:40:23.557Z,6.73
2019-04-24T00:40:28.564Z,6.38
2019-04-24T00:40:33.557Z,6.93
2019-04-24T00:40:38.557Z,6.65
2019-04-24T00:40:43.561Z,5.84
2019-04-24T00:40:48.561Z,4.33
2019-04-24T00:40:53.562Z,3.84
2019-04-24T00:40:58.562Z,6.10
2019-04-24T00:41:03.563Z,6.84
2019-04-24T00:41:08.565Z,7.80
2019-04-24T00:41:13.566Z,8.52
2019-04-24T00:41:18.566Z,7.63
2019-04-24T00:41:23.567Z,7.34
2019-04-24T00:41:28.571Z,5.12
2019-04-24T00:41:33.998Z,4.10
2019-04-24T00:41:38.572Z,3.76
2019-04-24T00:41:43.570Z,3.65
2019-04-24T00:41:48.575Z,5.74
2019-04-24T00:41:53.573Z,6.72
2019-04-24T00:41:58.581Z,7.04
2019-04-24T00:42:03.575Z,7.15
2019-04-24T00:42:08.577Z,7.18
2019-04-24T00:42:13.576Z,7.19
2019-04-24T00:42:18.601Z,7.20
2019-04-24T00:42:23.580Z,7.20
2019-04-24T00:42:28.580Z,7.78
2019-04-24T00:42:33.581Z,7.39
2019-04-24T00:42:38.584Z,5.14
2019-04-24T00:42:43.583Z,4.10
2019-04-24T00:42:48.584Z,5.36
2019-04-24T00:42:53.584Z,9.02
2019-04-24T00:42:58.586Z,10.22
2019-04-24T00:43:03.591Z,8.19
2019-04-24T00:43:08.590Z,7.06
2019-04-24T00:43:13.590Z,7.16
2019-04-24T00:43:18.805Z,7.76
2019-04-24T00:43:23.592Z,9.51
2019-04-24T00:43:28.594Z,10.38
2019-04-24T00:43:33.593Z,8.24
2019-04-24T00:43:38.594Z,7.54
2019-04-24T00:43:43.778Z,7.61
2019-04-24T00:43:48.596Z,7.31
2019-04-24T00:43:53.597Z,7.23
2019-04-24T00:43:58.598Z,7.21
2019-04-24T00:44:03.855Z,8.96
2019-04-24T00:44:08.601Z,9.02
2019-04-24T00:44:13.600Z,7.80
2019-04-24T00:44:18.603Z,7.40
2019-04-24T00:44:23.603Z,8.30
2019-04-24T00:44:28.623Z,9.41
2019-04-24T00:44:33.604Z,8.22
2019-04-24T00:44:38.605Z,9.29
2019-04-24T00:44:46.487Z,11.43
2019-04-24T00:44:48.608Z,10.64
2019-04-24T00:44:53.608Z,10.75
2019-04-24T00:44:58.611Z,8.36
2019-04-24T00:45:03.609Z,7.58
2019-04-24T00:45:08.611Z,7.32
2019-04-24T00:45:13.761Z,7.24
2019-04-24T00:45:18.630Z,6.64
2019-04-24T00:45:23.622Z,5.35
2019-04-24T00:45:28.614Z,4.17
2019-04-24T00:45:33.616Z,4.16
2019-04-24T00:45:38.618Z,4.54
2019-04-24T00:45:43.620Z,4.28
2019-04-24T00:45:48.620Z,3.82
2019-04-24T00:45:53.647Z,3.67
2019-04-24T00:45:58.620Z,4.80
2019-04-24T00:46:03.622Z,4.66
2019-04-24T00:46:08.621Z,3.95
2019-04-24T00:46:13.624Z,3.71
2019-04-24T00:46:18.624Z,4.21
2019-04-24T00:46:23.625Z,4.38
2019-04-24T00:46:28.626Z,4.52
2019-04-24T00:46:33.627Z,4.48
2019-04-24T00:46:38.627Z,7.60
2019-04-24T00:46:43.629Z,9.75
2019-04-24T00:46:48.631Z,9.33
2019-04-24T00:46:53.632Z,10.32
2019-04-24T00:46:58.633Z,9.35
2019-04-24T00:47:03.739Z,7.90
2019-04-24T00:47:08.639Z,9.85
2019-04-24T00:47:13.670Z,10.49
2019-04-24T00:47:18.636Z,10.40
2019-04-24T00:47:23.636Z,8.62
2019-04-24T00:47:28.638Z,7.66
2019-04-24T00:47:33.639Z,7.35
2019-04-24T00:47:38.641Z,6.53
2019-04-24T00:47:43.641Z,5.32
2019-04-24T00:47:48.645Z,4.46
2019-04-24T00:47:53.644Z,3.88
2019-04-24T00:47:58.643Z,4.27
2019-04-24T00:48:03.644Z,6.24
2019-04-24T00:48:08.645Z,5.13
2019-04-24T00:48:13.648Z,4.10
2019-04-24T00:48:18.648Z,6.18
2019-04-24T00:48:23.653Z,6.87
2019-04-24T00:48:28.651Z,6.63
2019-04-24T00:48:33.652Z,7.01
2019-04-24T00:48:38.651Z,6.56
2019-04-24T00:48:43.655Z,6.12
2019-04-24T00:48:48.653Z,5.67
2019-04-24T00:48:53.656Z,5.57
2019-04-24T00:48:58.657Z,6.67
2019-04-24T00:49:03.658Z,7.03
2019-04-24T00:49:08.664Z,7.14
2019-04-24T00:49:13.659Z,9.31
2019-04-24T00:49:18.661Z,9.59
2019-04-24T00:49:23.660Z,7.98
2019-04-24T00:49:28.661Z,7.46
2019-04-24T00:49:33.664Z,9.41
2019-04-24T00:49:38.663Z,11.06
2019-04-24T00:49:43.665Z,13.31
2019-04-24T00:49:48.666Z,11.92
2019-04-24T00:49:53.666Z,11.17
2019-04-24T00:49:58.668Z,8.50
2019-04-24T00:50:03.669Z,7.63
2019-04-24T00:50:08.671Z,7.34
2019-04-24T00:50:13.672Z,8.95
2019-04-24T00:50:18.670Z,6.59
2019-04-24T00:50:23.732Z,4.58
2019-04-24T00:50:28.672Z,5.10
2019-04-24T00:50:33.673Z,4.09
2019-04-24T00:50:38.676Z,5.52
2019-04-24T00:50:43.679Z,9.07
2019-04-24T00:50:48.677Z,8.48
2019-04-24T00:50:53.680Z,7.62
2019-04-24T00:50:58.679Z,9.09
2019-04-24T00:51:03.681Z,9.78
2019-04-24T00:51:08.682Z,11.59
2019-04-24T00:51:13.685Z,12.00
2019-04-24T00:51:18.683Z,11.19
2019-04-24T00:51:23.684Z,10.93
2019-04-24T00:51:28.685Z,9.18
2019-04-24T00:51:33.687Z,10.27
2019-04-24T00:51:38.690Z,8.87
2019-04-24T00:51:43.689Z,9.04
2019-04-24T00:51:48.691Z,8.10
2019-04-24T00:51:53.690Z,7.79
2019-04-24T00:51:58.692Z,7.39
2019-04-24T00:52:03.692Z,6.08
2019-04-24T00:52:08.692Z,5.65
2019-04-24T00:52:13.694Z,5.03
2019-04-24T00:52:18.696Z,6.49
2019-04-24T00:52:23.697Z,6.25
2019-04-24T00:52:28.699Z,6.59
2019-04-24T00:52:33.820Z,7.00
2019-04-24T00:52:38.699Z,7.13
2019-04-24T00:52:43.701Z,7.18
2019-04-24T00:52:48.700Z,7.19
2019-04-24T00:52:53.728Z,8.07
2019-04-24T00:52:58.729Z,7.48
2019-04-24T00:53:03.728Z,7.29
2019-04-24T00:53:08.730Z,7.23
2019-04-24T00:53:13.731Z,8.22
2019-04-24T00:53:18.909Z,9.96
2019-04-24T00:53:23.732Z,10.52
2019-04-24T00:53:28.734Z,10.71
2019-04-24T00:53:33.735Z,11.35
2019-04-24T00:53:38.735Z,9.22
2019-04-24T00:53:43.736Z,7.40
2019-04-24T00:53:48.736Z,8.97
2019-04-24T00:53:53.741Z,10.20
2019-04-24T00:53:58.741Z,10.60
2019-04-24T00:54:03.744Z,10.02
2019-04-24T00:54:08.742Z,10.54
2019-04-24T00:54:13.744Z,10.42
2019-04-24T00:54:18.745Z,10.68
2019-04-24T00:54:23.743Z,9.00
2019-04-24T00:54:28.745Z,7.79
2019-04-24T00:54:33.748Z,7.39
2019-04-24T00:54:38.748Z,9.02
2019-04-24T00:54:43.747Z,11.40
2019-04-24T00:54:48.749Z,13.05
2019-04-24T00:54:53.751Z,13.96
2019-04-24T00:54:59.839Z,12.50
2019-04-24T00:55:15.689Z,12.59
2019-04-24T00:55:21.224Z,11.68
2019-04-24T00:55:25.689Z,9.79
2019-04-24T00:55:30.692Z,10.18
2019-04-24T00:55:35.692Z,8.84
2019-04-24T00:55:40.693Z,10.73
2019-04-24T00:55:45.694Z,10.78
2019-04-24T00:55:50.696Z,10.79
2019-04-24T00:55:55.695Z,8.67
2019-04-24T00:56:00.696Z,7.68
2019-04-24T00:56:05.699Z,9.11
2019-04-24T00:56:10.700Z,10.25
2019-04-24T00:56:15.701Z,11.66
2019-04-24T00:56:20.701Z,13.21
2019-04-24T00:56:25.700Z,11.96
2019-04-24T00:56:30.705Z,10.46
2019-04-24T00:56:35.705Z,9.02
2019-04-24T00:56:40.706Z,7.80
2019-04-24T00:56:45.708Z,7.40
2019-04-24T00:56:50.707Z,7.26
2019-04-24T00:56:55.714Z,7.22
2019-04-24T00:57:00.707Z,5.08
2019-04-24T00:57:05.710Z,6.21
2019-04-24T00:57:10.712Z,6.88
2019-04-24T00:57:15.713Z,7.09
2019-04-24T00:57:20.713Z,7.17
2019-04-24T00:57:25.716Z,7.19
2019-04-24T00:57:30.715Z,7.92
2019-04-24T00:57:35.724Z,11.40
2019-04-24T00:57:40.721Z,13.99
2019-04-24T00:57:45.718Z,12.60
2019-04-24T00:57:50.719Z,10.93
2019-04-24T00:57:55.719Z,10.84
2019-04-24T00:58:00.721Z,9.57
2019-04-24T00:58:05.723Z,10.40
2019-04-24T00:58:10.725Z,8.25
2019-04-24T00:58:15.853Z,7.54
2019-04-24T00:58:20.725Z,6.02
2019-04-24T00:58:25.724Z,7.53
2019-04-24T00:58:30.726Z,9.73
2019-04-24T00:58:35.728Z,8.69
2019-04-24T00:58:40.729Z,7.69
2019-04-24T00:58:45.729Z,7.36
2019-04-24T00:58:50.730Z,7.25
2019-04-24T00:58:55.732Z,6.55
2019-04-24T00:59:00.732Z,5.69
2019-04-24T00:59:05.734Z,4.29
2019-04-24T00:59:10.735Z,6.25
2019-04-24T00:59:15.735Z,9.01
2019-04-24T00:59:20.738Z,8.62
2019-04-24T00:59:25.737Z,7.96
2019-04-24T00:59:30.738Z,7.45
2019-04-24T00:59:35.741Z,7.28
2019-04-24T00:59:40.741Z,7.23
2019-04-24T00:59:45.743Z,7.21
2019-04-24T00:59:50.743Z,7.20
2019-04-24T00:59:55.743Z,9.68
2019-04-24T01:00:00.744Z,11.10
2019-04-24T01:00:05.752Z,8.77
2019-04-24T01:00:10.747Z,7.71
2019-04-24T01:00:15.747Z,6.65
2019-04-24T01:00:20.749Z,4.89
2019-04-24T01:00:26.222Z,4.39
2019-04-24T01:00:30.753Z,4.58
2019-04-24T01:00:35.750Z,7.64
2019-04-24T01:00:40.754Z,8.73
2019-04-24T01:00:45.754Z,9.40
2019-04-24T01:00:50.754Z,8.96
2019-04-24T01:00:55.804Z,7.78
2019-04-24T01:01:00.754Z,13.23
2019-04-24T01:01:05.759Z,13.96
2019-04-24T01:01:10.967Z,11.26
2019-04-24T01:01:15.758Z,9.83
2019-04-24T01:01:20.760Z,10.02
2019-04-24T01:01:25.761Z,9.82
2019-04-24T01:01:31.754Z,8.89
2019-04-24T01:01:35.764Z,7.75
2019-04-24T01:01:40.763Z,4.96
2019-04-24T01:01:45.765Z,4.05
2019-04-24T01:01:50.767Z,5.04
2019-04-24T01:01:55.767Z,6.49
2019-04-24T01:02:00.768Z,6.67
2019-04-24T01:02:05.769Z,7.03
2019-04-24T01:02:10.769Z,7.14
2019-04-24T01:02:15.770Z,5.13
2019-04-24T01:02:20.770Z,6.52
2019-04-24T01:02:25.773Z,5.57
2019-04-24T01:02:30.775Z,4.71
2019-04-24T01:02:35.777Z,6.09
2019-04-24T01:02:40.775Z,6.26
2019-04-24T01:02:45.774Z,6.89
2019-04-24T01:02:50.776Z,7.10
2019-04-24T01:02:55.777Z,5.50
2019-04-24T01:03:00.781Z,4.22
2019-04-24T01:03:06.039Z,6.22
2019-04-24T01:03:10.782Z,7.60
2019-04-24T01:03:15.781Z,10.79
2019-04-24T01:03:20.782Z,10.08
2019-04-24T01:03:25.783Z,8.14
2019-04-24T01:03:30.785Z,9.93
2019-04-24T01:03:35.794Z,9.69
2019-04-24T01:03:40.789Z,8.68
2019-04-24T01:03:45.787Z,8.40
2019-04-24T01:03:50.789Z,10.01
2019-04-24T01:03:55.790Z,10.54
2019-04-24T01:04:00.791Z,10.00
2019-04-24T01:04:05.792Z,8.84
2019-04-24T01:04:10.793Z,8.03
2019-04-24T01:04:15.794Z,7.47
2019-04-24T01:04:20.793Z,7.29
2019-04-24T01:04:25.798Z,9.35
2019-04-24T01:04:30.799Z,10.79
2019-04-24T01:04:35.797Z,10.80
2019-04-24T01:04:40.799Z,10.80
2019-04-24T01:04:45.800Z,10.80
2019-04-24T01:04:50.800Z,11.84
2019-04-24T01:04:55.801Z,11.43
2019-04-24T01:05:00.802Z,11.58
2019-04-24T01:05:05.805Z,11.72
2019-04-24T01:05:10.805Z,11.10
2019-04-24T01:05:16.021Z,10.90
2019-04-24T01:05:20.806Z,10.83
2019-04-24T01:05:25.807Z,9.15
2019-04-24T01:05:30.809Z,7.26
2019-04-24T01:05:35.808Z,7.80
2019-04-24T01:05:40.811Z,8.15
2019-04-24T01:05:45.812Z,9.18
2019-04-24T01:05:50.814Z,10.27
2019-04-24T01:05:55.812Z,9.91
2019-04-24T01:06:00.814Z,11.69
2019-04-24T01:06:05.819Z,12.76
2019-04-24T01:06:10.816Z,12.74
2019-04-24T01:06:15.816Z,13.85
2019-04-24T01:06:20.819Z,11.80
2019-04-24T01:06:25.818Z,11.13